Nearby METAR Reports

 

KMTN - Baltimore/Martin, Maryland, USA
Distance from station: SSE 8mi, 13km
Updated: Sat, 19-Apr-2014 7:45pm EDT
Mostly cloudy
Mostly cloudy
 Wind from N
Wind: N 7 mph , 11 km/h
Temperature: 63°F , 17°C
Dew Point: 28°F , -2°C
Humidity: 27%
Barometer: 30.27 inHg , 1025.1 hPa
Clouds: Mostly cloudy
Visibility: 10 miles , 16 km
Cloud details: Mostly cloudy 18000 ft
2014/04/19 23:45 KMTN 192345Z 35006KT 10SM BKN180 17/M02 A3027
KDMH - Baltimore/Dwntwn, Maryland, USA
Distance from station: SW 12mi, 19km
Updated: Sat, 19-Apr-2014 7:54pm EDT

 
Temperature: 64°F , 18°C
Dew Point: 27°F , -3°C
Humidity: 24%
Barometer: 30.26 inHg , 1024.7 hPa
2014/04/19 23:54 KDMH 192354Z AUTO 18/M03 A3026 RMK AO1 SLP248 T01781033 10206 20178 53010
 
KBWI - Balto/Wash Intl, Maryland, USA
Distance from station: SSW 20mi, 33km
Updated: Sat, 19-Apr-2014 7:54pm EDT
Mostly cloudy
Mostly cloudy
 Wind from NNE
Wind: NNE 7 mph , 11 km/h
Temperature: 63°F , 17°C
Dew Point: 27°F , -3°C
Humidity: 25%
Barometer: 30.25 inHg , 1024.4 hPa
Clouds: Mostly cloudy
Visibility: 10 miles , 16 km
Cloud details: Few Clouds 20000 ft
Mostly cloudy 25000 ft
2014/04/19 23:54 KBWI 192354Z 03006KT 10SM FEW200 BKN250 17/M03 A3025 RMK AO2 SLP244 T01671033 10200 20167 53011
KDMW - Carroll Cnty, Maryland, USA
Distance from station: WNW 30mi, 48km
Updated: Sat, 19-Apr-2014 8:20pm EDT
Clear
Clear
 Wind from calm
Wind: Calm
Temperature: 57°F , 14°C
Dew Point: 25°F , -4°C
Humidity: 29%
Barometer: 30.29 inHg , 1025.7 hPa
Clouds: Clear
Visibility: 10 miles , 16 km
2014/04/20 00:20 KDMW 200020Z AUTO 00000KT 10SM CLR 14/M04 A3029 RMK AO2
 
KNAK - Annapolis/Naval, Maryland, USA
Distance from station: S 30mi, 48km
Updated: Sat, 19-Apr-2014 7:54pm EDT
Clear
Clear
 Wind from NNE
Wind: NNE 5 mph , 7 km/h
Temperature: 63°F , 17°C
Dew Point: 36°F , 2°C
Humidity: 37%
Barometer: 30.25 inHg , 1024.4 hPa
Clouds: Clear
Visibility: 10 miles , 16 km
2014/04/19 23:54 KNAK 192354Z AUTO 03004KT 10SM CLR 17/02 A3025 RMK AO2 SLP246 T01670017 10183 20150 53008
KW29 - Stevensville, Maryland, USA
Distance from station: SSE 31mi, 50km
Updated: Sat, 19-Apr-2014 8:23pm EDT
Clear
Clear
 Wind from NE
Wind: NE 5 mph , 7 km/h
Temperature: 61°F , 16°C
Dew Point: 32°F , 0°C
Humidity: 34%
Barometer: 30.27 inHg , 1025.1 hPa
Clouds: Clear
Visibility: 10 miles , 16 km
2014/04/20 00:23 KW29 200023Z AUTO 04004KT 10SM CLR 16/00 A3027 RMK AO1
 
KCGS - College Park, Maryland, USA
Distance from station: SW 38mi, 61km
Updated: Sat, 19-Apr-2014 8:20pm EDT
Clear
Clear
 Wind from calm
Wind: Calm
Temperature: 61°F , 16°C
Dew Point: 28°F , -2°C
Humidity: 29%
Barometer: 30.26 inHg , 1024.7 hPa
Clouds: Clear
Visibility: 10 miles , 16 km
2014/04/20 00:20 KCGS 200020Z AUTO 00000KT 10SM CLR 16/M02 A3026 RMK AO1
KGAI - Gaithersburg, Maryland, USA
Distance from station: WSW 40mi, 65km
Updated: Sat, 19-Apr-2014 8:35pm EDT
Clear
Clear
 Wind from NNE
Wind: NNE 3 mph , 6 km/h
Temperature: 55°F , 13°C
Dew Point: 27°F , -3°C
Humidity: 33%
Barometer: 30.29 inHg , 1025.7 hPa
Clouds: Clear
Visibility: 10 miles , 16 km
2014/04/20 00:35 KGAI 200035Z AUTO 02003KT 10SM CLR 13/M03 A3029 RMK AO1
 
KTHV - York, Pennsylvania, USA
Distance from station: NNW 40mi, 65km
Updated: Sat, 19-Apr-2014 7:53pm EDT
Clear
Clear
 Wind from calm
Wind: Calm
Temperature: 48°F , 9°C
Dew Point: 36°F , 2°C
Humidity: 62%
Barometer: 30.28 inHg , 1025.4 hPa
Clouds: Clear
Visibility: 10 miles , 16 km
2014/04/19 23:53 KTHV 192353Z AUTO 00000KT 10SM CLR 09/02 A3028 RMK AO2 SLP257 T00940022 10183 20094 51006
KFDK - Frederick, Maryland, USA
Distance from station: W 47mi, 75km
Updated: Sat, 19-Apr-2014 7:50pm EDT
Clear
Clear
 Wind from NNE
Wind: NNE 6 mph , 9 km/h
Clouds: Clear
Visibility: 10 miles , 16 km
2014/04/19 23:50 KFDK 192350Z 02005KT 10SM SKC 14/0 A3030
 
KESN - Easton/Newnam, Maryland, USA
Distance from station: SSE 48mi, 78km
Updated: Sat, 19-Apr-2014 7:50pm EDT
Overcast
Overcast
 Wind from NE
Wind: NE 6 mph , 9 km/h
Temperature: 61°F , 16°C
Dew Point: 37°F , 3°C
Humidity: 42%
Barometer: 30.28 inHg , 1025.4 hPa
Clouds: Overcast
Visibility: 10 miles , 16 km
Cloud details: Overcast 15000 ft
2014/04/19 23:50 KESN 192350Z 05005KT 10SM OVC150 16/03 A3028
KDCA - Washington/Natl, Washington D.c., USA
Distance from station: SW 49mi, 79km
Updated: Sat, 19-Apr-2014 7:52pm EDT
Clear
Clear
 Wind from N
Wind: N 10 mph , 17 km/h
Temperature: 63°F , 17°C
Dew Point: 25°F , -4°C
Humidity: 24%
Barometer: 30.25 inHg , 1024.4 hPa
Clouds: Clear
Visibility: 10 miles , 16 km
2014/04/19 23:52 KDCA 192352Z 01009KT 10SM CLR 17/M04 A3025 RMK AO2 SLP245 T01721039 10217 20172 52011 $
 
KLNS - Lancaster, Pennsylvania, USA
Distance from station: N 49mi, 79km
Updated: Sat, 19-Apr-2014 7:53pm EDT
Clear
Clear
 Wind from NNE
Wind: NNE 8 mph , 13 km/h
Temperature: 55°F , 13°C
Dew Point: 25°F , -4°C
Humidity: 31%
Barometer: 30.27 inHg , 1025.1 hPa
Clouds: Clear
Visibility: 10 miles , 16 km
2014/04/19 23:53 KLNS 192353Z 02007KT 10SM CLR 13/M04 A3027 RMK AO2 SLP252 T01331039 10178 20133 51010
KILG - Wilmington, Delaware, USA
Distance from station: ENE 50mi, 81km
Updated: Sat, 19-Apr-2014 7:51pm EDT
Clear
Clear
 Wind from NNW
Wind: NNW 5 mph , 7 km/h
Temperature: 61°F , 16°C
Dew Point: 27°F , -3°C
Humidity: 27%
Barometer: 30.27 inHg , 1025.1 hPa
Clouds: Clear
Visibility: 10 miles , 16 km
2014/04/19 23:51 KILG 192351Z AUTO 34004KT 10SM CLR 16/M03 A3027 RMK AO2 SLP248 T01561033 10206 20144 51007